South Reno (Wolf Run), Nevada Weather observations

Data are for observation ending at time listed.
 Day   Time    Ave.   Ave.  Ave.  Vector   Max.   Stn.    Total    Solar   Ave.  
  of    of     Air    Rel.  Wind   Wind    Wind   Baro.  Precip.   Rad.    Soil  
Year   Day     Temp.  Hum.  Speed  Dir.    Gust   Pres.                    Temp. 
2014   (PST)    F      %     mph   deg.    mph     mb.     in.     W/m2     F   
------------------------------------------------------------------------------
 354    0:00   39.1    81    2.4    79      4.6  99999.0    0.00       0    40.7
 354    0:10   38.9    81    1.6   232      4.8  99999.0    0.00       0    40.7
 354    0:20   38.6    80    2.6   311      6.4  99999.0    0.00       0    40.7
 354    0:30   39.2    79    2.7   298      7.2  99999.0    0.00       0    40.7
 354    0:40   39.9    76    2.6    83      8.0  99999.0    0.00       0    40.7
 354    0:50   40.7    72    3.6   314      7.0  99999.0    0.00       0    40.7
 354    1:00   40.0    75    5.3   320      8.5  99999.0    0.00       0    40.7
 354    1:10   40.1    74    4.1   301      7.2  99999.0    0.00       0    40.7
 354    1:20   40.2    74    4.5   297      7.5  99999.0    0.00       0    40.7
 354    1:30   40.6    72    2.9   324      5.4  99999.0    0.00       0    40.7
 354    1:40   40.3    73    5.1   337      9.9  99999.0    0.00       0    40.7
 354    1:50   39.9    75    4.3   328      7.4  99999.0    0.00       0    40.7
 354    2:00   39.4    76    5.2   346     10.9  99999.0    0.00       0    40.7
 354    2:10   40.3    73    2.9   345      8.7  99999.0    0.00       0    40.7
 354    2:20   40.2    73    2.8   323      6.1  99999.0    0.00       0    40.7
 354    2:30   40.1    73    4.7   262      8.2  99999.0    0.00       0    40.7
 354    2:40   41.0    70    4.0   306      8.0  99999.0    0.00       0    40.7
 354    2:50   40.9    70    3.2   324      6.7  99999.0    0.00       0    40.7
 354    3:00   40.9    70    4.2   311      9.3  99999.0    0.00       0    40.7
 354    3:10   40.5    71    2.8   267      5.8  99999.0    0.00       0    40.7
 354    3:20   40.1    73    2.2   293      5.9  99999.0    0.00       0    40.6
 354    3:30   39.7    74    3.8   314      8.7  99999.0    0.00       0    40.6
 354    3:40   39.8    74    5.8   318     10.4  99999.0    0.00       0    40.6
 354    3:50   39.7    74    6.9   313     12.7  99999.0    0.00       0    40.6
 354    4:00   40.1    73    4.4   303     10.6  99999.0    0.00       0    40.6
 354    4:10   40.2    72    2.3   283      6.5  99999.0    0.00       0    40.6
 354    4:20   40.7    70    5.3   301      9.7  99999.0    0.00       0    40.6
 354    4:30   40.8    69    3.6   309      7.0  99999.0    0.00       0    40.6
 354    4:40   40.6    70    4.3   322      8.3  99999.0    0.00       0    40.6
 354    4:50   40.7    70    2.7   316      8.4  99999.0    0.00       0    40.6
 354    5:00   40.2    72    3.4    91      5.3  99999.0    0.00       0    40.6
 354    5:10   39.2    76    2.4   180      5.9  99999.0    0.00       0    40.6
 354    5:20   39.7    74    1.6   199      5.1  99999.0    0.00       0    40.6
 354    5:30   39.8    73    1.4   230      4.1  99999.0    0.00       0    40.6
 354    5:40   40.3    71    2.1   135      4.9  99999.0    0.00       0    40.6
 354    5:50   41.2    68    1.8   347      4.6  99999.0    0.00       0    40.6
 354    6:00   41.8    67    2.9   345      6.9  99999.0    0.00       0    40.6
 354    6:10   41.4    69    3.7   325      7.5  99999.0    0.00       0    40.6
 354    6:20   41.7    69    3.7   307      7.5  99999.0    0.00       0    40.6
 354    6:30   41.4    70    1.2    11      4.1  99999.0    0.00       0    40.6
 354    6:40   41.1    72    2.3   264      6.5  99999.0    0.00       0    40.6
 354    6:50   41.4    71    4.4    17      7.5  99999.0    0.00       0    40.6
 354    7:00   40.9    70    5.0    44      9.8  99999.0    0.00       0    40.6
 354    7:10   40.8    71    3.0     5      4.9  99999.0    0.00       0    40.6
 354    7:20   40.4    72    1.9   317      5.3  99999.0    0.00       1    40.6
 354    7:30   40.0    74    3.5   285      5.2  99999.0    0.00       3    40.6
 354    7:40   40.6    71    3.2   334      5.2  99999.0    0.00       6    40.6
 354    7:50   40.6    72    4.1   324      6.9  99999.0    0.00      12    40.6
 354    8:00   40.6    72    1.9   339      5.0  99999.0    0.00      27    40.6
 354    8:10   40.9    70    2.7   342      6.8  99999.0    0.00      43    40.6
 354    8:20   41.1    70    1.7   319      3.7  99999.0    0.00      38    40.6
 354    8:30   40.9    71    1.7     7      3.7  99999.0    0.00      43    40.6
 354    8:40   40.9    72    2.3   345      4.7  99999.0    0.00      53    40.6
 354    8:50   41.3    71    4.0   358      5.9  99999.0    0.00     106    40.6
 354    9:00   41.8    70    3.2   319      6.4  99999.0    0.00      64    40.7
 354    9:10   41.9    70    6.3   342     10.2  99999.0    0.00      60    40.7
 354    9:20   41.7    70    5.4   330     10.5  99999.0    0.00      72    40.7
 354    9:30   41.7    68    7.9   329     14.6  99999.0    0.00      49    40.7
 354    9:40   42.0    67    5.3   346      9.7  99999.0    0.00      49    40.7
 354    9:50   42.2    67    3.2   318      5.6  99999.0    0.00      36    40.7
 354   10:00   42.4    67    2.2   320      5.2  99999.0    0.00      46    40.7
 354   10:10   42.7    66    2.2   332      5.7  99999.0    0.00      46    40.7
 354   10:20   42.9    67    1.5   359      5.4  99999.0    0.00      60    40.7
 354   10:30   43.0    66    1.7    61      3.5  99999.0    0.00      84    40.8
 354   10:40   42.8    67    3.0    10      5.3  99999.0    0.00      53    40.8
 354   10:50   43.0    67    2.4     8      4.5  99999.0    0.00      84    40.8
 354   11:00   43.6    67    3.3   349      7.0  99999.0    0.00      92    40.8
 354   11:10   43.9    67    4.2   335      7.3  99999.0    0.00      99    40.8
 354   11:20   44.3    66    2.6   306      8.2  99999.0    0.00     107    40.8
 354   11:30   44.3    65    2.9   349      4.7  99999.0    0.00     127    40.9
 354   11:40   44.7    64    3.5   328      7.8  99999.0    0.00     184    40.9
 354   11:50   45.6    64    3.8   332      7.3  99999.0    0.00     213    40.9
 354   12:00   45.8    63    2.9   306      7.0  99999.0    0.00     184    41.0
 354   12:10   45.7    63    4.2   289      8.2  99999.0    0.00     126    41.0
 354   12:20   44.9    65    5.6   312      8.4  99999.0    0.00      98    41.0
 354   12:30   44.8    65    5.0   353      7.8  99999.0    0.00      99    41.0
 354   12:40   45.2    64    3.0   356      6.7  99999.0    0.00     130    41.1
 354   12:50   46.2    62    3.4   315      5.8  99999.0    0.00     216    41.1
 354   13:00   46.4    60    4.0     7      6.8  99999.0    0.00     163    41.2
 354   13:10   46.2    61    3.9    31      7.8  99999.0    0.00     124    41.2
 354   13:20   46.2    61    2.2    17      5.3  99999.0    0.00     109    41.3
 354   13:30   46.4    61    2.6    24      8.7  99999.0    0.00      93    41.3
 354   13:40   46.2    60    5.6    49     10.1  99999.0    0.00      88    41.4
 354   13:50   46.2    58    7.9    61     12.1  99999.0    0.00      70    41.4
 354   14:00   46.3    58    7.3    86     11.6  99999.0    0.00      53    41.5
 354   14:10   46.0    59    7.0    93     10.9  99999.0    0.00      61    41.5
 354   14:20   45.8    59    5.4    96     11.4  99999.0    0.00      78    41.5
 354   14:30   46.3    59    2.6    68      4.5  99999.0    0.00     105    41.6
 354   14:40   47.0    58    2.5    30      5.0  99999.0    0.00     147    41.6
 354   14:50   47.4    57    3.6     3      9.1  99999.0    0.00     116    41.7
 354   15:00   47.8    56    3.5     9      8.0  99999.0    0.00     155    41.7
 354   15:10   48.5    54    3.0    62      5.6  99999.0    0.00     135    41.7
 354   15:20   48.4    53    4.4    90     11.0  99999.0    0.00      70    41.8

Return to South Reno, Nevada graphs page.


Western Regional Climate Center,wrcc@dri.edu